Columbia Gorge Regional the Dalles Municipal Airport
KDLS : now visible

Airfield :











YOU CAN JOIN US ON...

 
LOGIN :

Register | Disclaimer

   EN    FR    IT 

 









Legend :    VFR   Marginal VFR   IFR   Intensive IFR   Very Intensive IFR
Visi :
Ceiling :
>= 8 km
>= 3000ft
5 to 8 km
1000 to 3000 ft
1500m to 5 km
500 to 1000 ft
800 to 1500m
200 to 500 ft
< 800m
< 200 ft
Symbols :   Thunderstorms  Fog  Heavy snow  Heavy precipitations  Wind > 20 kt






- Airport Elevation : 247 ft


KDLS - Columbia Gorge Regional the Dalles Municipal

CURRENT METAR :
  • 191753Z AUTO 00000KT 10SM CLR 01/M04 A3049 RMK AO2 SLP326 T00111039 10011 21056 50012

EXPIRED METARs :
  • 191653Z AUTO 00000KT 10SM CLR M01/M04 A3049 RMK AO2 SLP328 T10111039
  • 191553Z AUTO 00000KT 10SM CLR M03/M06 A3047 RMK AO2 SLP321 T10331061

TAF KDLS
Valid from the 19 at 18:00 until the 20 at 18:00 UTC


191720Z 1918/2018 VRB04KT P6SM SKC
FM192100 10007KT P6SM SKC



MET'MAP, your aeronautical weather chart ! - Copyright ORBIFLY December 2007 - Disclaimer

ORBIFLY MET'MAP TEAM :

Programming & Development : Alexandra Zaïnal
Concept & original design : Baudouin d'Aumeries
Assistance for programming : Marc-Olivier Méhu
Technical & hardware support : Manuel Goepfert

Contact : metmap@orbifly.com




SOURCES & CREDITS :

   NOAA       Earth
Advisory